Latest Weather Observations for Adele Island

IDW60801

Issued at 9:53 pm WST Wednesday 8 July 2020 (issued every 10 minutes, with the page automatically refreshed every 10 minutes)

About weather observations | Map of weather stations | Latest weather observations for WA | Other Formats
Station Details ID: 200735 Name: ADELE ISLAND Lat: -15.51 Lon: 123.16 Height: 4.6 m
Data from the previous 72 hours. | See also: Recent months at Adele Island
Date/Time
WST
Temp
°C
App
Temp
°C
Dew
Point
°C
Rel
Hum
%
Delta-T
°C
Wind Press
QNH
hPa
Press
MSL
hPa
Rain since
9am
mm
Dir  Spd
km/h
Gust
km/h
Spd
kts
Gust
kts
08/09:30pm 24.9 - - - - CALM 0 2 0 1 1014.0 1013.9 -
08/09:17pm 25.0 - - - - CALM 0 - 0 - - 1013.9 -
08/09:00pm 24.9 - - - - CALM 0 4 0 2 1014.1 1014.0 -
08/08:30pm 25.3 - - - - CALM 0 6 0 3 1014.2 1014.1 -
08/08:17pm 25.4 - - - - CALM 0 - 0 - - 1014.1 -
08/08:00pm 24.9 - - - - CALM 0 6 0 3 1014.1 1014.0 -
08/07:30pm 24.7 - - - - CALM 0 4 0 2 1013.8 1013.7 -
08/07:17pm 24.4 - - - - CALM 0 - 0 - - 1013.7 -
08/07:00pm 24.5 - - - - CALM 0 0 0 0 1013.7 1013.6 -
08/06:30pm 24.4 - - - - CALM 0 2 0 1 1013.4 1013.3 -
08/06:17pm 24.6 - - - - CALM 0 - 0 - - 1013.1 -
08/06:00pm 24.5 - - - - CALM 0 6 0 3 1013.2 1013.1 -
08/05:30pm 24.9 - - - - CALM 0 4 0 2 1013.0 1012.9 -
08/05:17pm 25.0 - - - - CALM 0 - 0 - - 1012.7 -
08/05:00pm 25.1 - - - - CALM 0 4 0 2 1012.8 1012.7 -
08/04:30pm 25.5 - - - - CALM 0 2 0 1 1012.9 1012.8 -
08/04:17pm 25.6 - - - - CALM 0 - 0 - - 1012.8 -
08/04:00pm 26.1 - - - - ENE 9 13 5 7 1012.8 1012.7 -
08/03:30pm 26.2 - - - - ENE 13 15 7 8 1012.7 1012.6 -
08/03:17pm 26.0 - - - - NE 13 - 7 - - 1012.6 -
08/03:00pm 26.2 - - - - NE 15 20 8 11 1012.7 1012.6 -
08/02:30pm 26.1 - - - - ENE 13 17 7 9 1012.7 1012.6 -
08/02:17pm 26.4 - - - - ENE 15 - 8 - - 1012.7 -
08/02:00pm 26.8 - - - - ENE 17 22 9 12 1012.8 1012.7 -
08/01:30pm 26.5 - - - - ENE 17 22 9 12 1013.0 1012.9 -
08/01:17pm 26.4 - - - - NE 17 - 9 - - 1012.9 -
08/01:00pm 26.3 - - - - NE 20 26 11 14 1013.0 1012.9 -
08/12:30pm 26.5 - - - - ENE 19 24 10 13 1013.4 1013.3 -
08/12:17pm 26.4 - - - - ENE 19 - 10 - - 1013.5 -
08/12:00pm 26.6 - - - - ENE 20 26 11 14 1013.9 1013.8 -
08/11:30am 27.0 - - - - ENE 19 28 10 15 1014.2 1014.1 -
08/11:17am 26.8 - - - - E 19 - 10 - - 1014.3 -
08/11:00am 26.4 - - - - ENE 19 24 10 13 1014.7 1014.6 -
08/10:30am 26.9 - - - - ENE 17 22 9 12 1014.8 1014.7 -
08/10:17am 26.5 - - - - E 17 - 9 - - 1015.0 -
08/10:00am 26.0 - - - - ENE 15 20 8 11 1015.1 1015.0 -
08/09:30am 25.9 - - - - ENE 6 15 3 8 1015.3 1015.2 -
08/09:17am 25.8 - - - - ENE 4 - 2 - - 1015.2 -
08/09:00am 25.5 - - - - N 7 15 4 8 1015.3 1015.2 -
08/08:30am 25.2 - - - - ENE 11 15 6 8 1015.5 1015.4 -
08/08:17am 25.1 - - - - ENE 9 - 5 - - 1015.4 -
08/08:00am 24.8 - - - - ENE 11 13 6 7 1015.5 1015.4 -
08/07:30am 24.5 - - - - E 9 13 5 7 1015.4 1015.3 -
08/07:17am 24.2 - - - - ESE 9 - 5 - - 1015.1 -
08/07:00am 23.6 - - - - SE 4 9 2 5 1015.1 1015.0 -
08/06:30am 23.9 - - - - CALM 0 4 0 2 1014.9 1014.8 -
08/06:17am 23.7 - - - - CALM 0 - 0 - - 1014.7 -
08/06:00am 24.0 - - - - CALM 0 6 0 3 1014.7 1014.6 -
08/05:30am 23.5 - - - - CALM 0 4 0 2 1014.5 1014.4 -
08/05:17am 24.3 - - - - CALM 0 - 0 - - 1014.4 -
08/05:00am 24.0 - - - - SSE 2 6 1 3 1014.4 1014.3 -
08/04:30am 23.5 - - - - CALM 0 2 0 1 1014.4 1014.3 -
08/04:17am 24.3 - - - - CALM 0 - 0 - - 1014.3 -
08/04:00am 24.4 - - - - CALM 0 4 0 2 1014.4 1014.3 -
08/03:30am 23.9 - - - - CALM 0 4 0 2 1014.4 1014.3 -
08/03:17am 24.0 - - - - CALM 0 - 0 - - 1014.2 -
08/03:00am 23.9 - - - - CALM 0 4 0 2 1014.3 1014.2 -
08/02:30am 25.0 - - - - SSW 6 7 3 4 1014.4 1014.3 -
08/02:17am 24.6 - - - - SSW 6 - 3 - - 1014.4 -
08/02:00am 24.2 - - - - SSW 2 7 1 4 1014.6 1014.5 -
08/01:30am 24.5 - - - - S 6 6 3 3 1014.6 1014.5 -
08/01:17am 24.6 - - - - S 6 - 3 - - 1014.5 -
08/01:00am 24.5 - - - - S 6 7 3 4 1014.6 1014.5 -
08/12:30am 24.3 - - - - S 6 7 3 4 1014.8 1014.7 -
08/12:17am 24.4 - - - - S 6 - 3 - - 1014.8 -
08/12:00am 24.4 - - - - CALM 0 2 0 1 1015.0 1014.9 -
 
Date/Time
WST
Temp
°C
App
Temp
°C
Dew
Point
°C
Rel
Hum
%
Delta-T
°C
Wind Press
QNH
hPa
Press
MSL
hPa
Rain since
9am
mm
Dir  Spd
km/h
Gust
km/h
Spd
kts
Gust
kts
07/11:30pm 24.0 - - - - CALM 0 4 0 2 1015.2 1015.1 -
07/11:17pm 23.9 - - - - CALM 0 - 0 - - 1015.1 -
07/11:00pm 23.9 - - - - CALM 0 2 0 1 1015.3 1015.2 -
07/10:30pm 24.0 - - - - CALM 0 4 0 2 1015.5 1015.4 -
07/10:17pm 24.0 - - - - CALM 0 - 0 - - 1015.4 -
07/10:00pm 23.7 - - - - CALM 0 4 0 2 1015.6 1015.5 -
07/09:30pm 24.1 - - - - CALM 0 4 0 2 1015.7 1015.6 -
07/09:18pm 24.0 - - - - CALM 0 - 0 - - 1015.7 -
07/09:00pm 23.9 - - - - CALM 0 0 0 0 1015.9 1015.8 -
07/08:30pm 24.0 - - - - CALM 0 4 0 2 1015.7 1015.6 -
07/08:17pm 23.7 - - - - CALM 0 - 0 - - 1015.6 -
07/08:00pm 24.0 - - - - CALM 0 6 0 3 1015.5 1015.4 -
07/07:30pm 24.6 - - - - CALM 0 6 0 3 1015.3 1015.2 -
07/07:17pm 24.6 - - - - CALM 0 - 0 - - 1015.3 -
07/07:00pm 24.8 - - - - CALM 0 4 0 2 1015.2 1015.1 -
07/06:30pm 25.0 - - - - CALM 0 4 0 2 1015.1 1015.0 -
07/06:17pm 25.1 - - - - NNE 2 - 1 - - 1014.7 -
07/06:00pm 24.7 - - - - CALM 0 4 0 2 1014.7 1014.6 -
07/05:30pm 24.7 - - - - CALM 0 6 0 3 1014.5 1014.4 -
07/05:17pm 24.7 - - - - CALM 0 - 0 - - 1014.3 -
07/05:00pm 24.6 - - - - CALM 0 6 0 3 1014.3 1014.2 -
07/04:30pm 24.8 - - - - NE 15 20 8 11 1013.9 1013.8 -
07/04:17pm 24.8 - - - - NE 17 - 9 - - 1013.8 -
07/04:00pm 25.1 - - - - NE 17 22 9 12 1014.0 1013.9 -
07/03:30pm 25.3 - - - - NE 19 20 10 11 1014.0 1013.9 -
07/03:17pm 25.4 - - - - NE 19 - 10 - - 1013.9 -
07/03:00pm 25.5 - - - - NE 19 24 10 13 1014.0 1013.9 -
07/02:30pm 25.9 - - - - NE 19 26 10 14 1014.1 1014.0 -
07/02:17pm 25.8 - - - - NE 17 - 9 - - 1014.0 -
07/02:00pm 25.8 - - - - NE 19 24 10 13 1014.3 1014.2 -
07/01:30pm 25.6 - - - - ENE 19 22 10 12 1014.5 1014.4 -
07/01:17pm 26.3 - - - - ENE 20 - 11 - - 1014.5 -
07/01:00pm 25.5 - - - - ENE 22 28 12 15 1014.8 1014.7 -
07/12:30pm 25.8 - - - - ENE 22 30 12 16 1015.2 1015.1 -
07/12:17pm 26.2 - - - - ENE 24 - 13 - - 1015.2 -
07/12:00pm 26.1 - - - - ENE 24 32 13 17 1015.4 1015.3 -
07/11:30am 25.8 - - - - ENE 28 35 15 19 1015.7 1015.6 -
07/11:17am 26.0 - - - - ENE 28 - 15 - - 1015.8 -
07/11:00am 25.8 - - - - ENE 28 37 15 20 1016.1 1016.0 -
07/10:30am 26.0 - - - - ENE 28 39 15 21 1016.3 1016.2 -
07/10:17am 26.1 - - - - ENE 30 - 16 - - 1016.3 -
07/10:00am 26.0 - - - - ENE 30 35 16 19 1016.4 1016.3 -
07/09:30am 26.1 - - - - ENE 28 35 15 19 1016.6 1016.5 -
07/09:17am 26.3 - - - - ENE 28 - 15 - - 1016.5 -
07/09:00am 25.9 - - - - ENE 30 35 16 19 1016.6 1016.5 -
07/08:30am 25.7 - - - - NE 32 37 17 20 1016.5 1016.4 -
07/08:17am 25.4 - - - - NE 32 - 17 - - 1016.3 -
07/08:00am 25.4 - - - - NE 30 37 16 20 1016.2 1016.1 -
07/07:30am 25.0 - - - - N 26 32 14 17 1015.9 1015.8 -
07/07:17am 25.1 - - - - N 28 - 15 - - 1015.7 -
07/07:00am 25.0 - - - - NE 30 33 16 18 1015.5 1015.4 -
07/06:30am 24.8 - - - - ENE 24 28 13 15 1015.3 1015.2 -
07/06:17am 24.6 - - - - E 6 - 3 - - 1015.2 -
07/06:00am 24.4 - - - - E 2 6 1 3 1015.1 1015.0 -
07/05:30am 24.1 - - - - ESE 2 6 1 3 1014.9 1014.8 -
07/05:17am 24.2 - - - - ESE 2 - 1 - - 1014.8 -
07/05:00am 23.9 - - - - ESE 2 6 1 3 1014.8 1014.7 -
07/04:30am 22.6 - - - - CALM 0 4 0 2 1014.8 1014.7 -
07/04:17am 22.4 - - - - CALM 0 - 0 - - 1014.7 -
07/04:00am 23.2 - - - - CALM 0 4 0 2 1014.8 1014.7 -
07/03:30am 23.4 - - - - CALM 0 2 0 1 1014.9 1014.8 -
07/03:17am 23.5 - - - - CALM 0 - 0 - - 1014.9 -
07/03:00am 23.4 - - - - CALM 0 4 0 2 1015.1 1015.0 -
07/02:30am 23.7 - - - - CALM 0 6 0 3 1015.3 1015.2 -
07/02:17am 23.5 - - - - S 2 - 1 - - 1015.3 -
07/02:00am 24.0 - - - - S 2 4 1 2 1015.5 1015.4 -
07/01:30am 23.6 - - - - S 2 6 1 3 1015.7 1015.6 -
07/01:17am 24.0 - - - - CALM 0 - 0 - - 1015.6 -
07/01:00am 24.5 - - - - CALM 0 2 0 1 1015.8 1015.7 -
07/12:30am 24.6 - - - - CALM 0 4 0 2 1016.0 1015.9 -
07/12:17am 24.3 - - - - CALM 0 - 0 - - 1015.9 -
07/12:00am 24.1 - - - - CALM 0 4 0 2 1016.1 1016.0 -
 
Date/Time
WST
Temp
°C
App
Temp
°C
Dew
Point
°C
Rel
Hum
%
Delta-T
°C
Wind Press
QNH
hPa
Press
MSL
hPa
Rain since
9am
mm
Dir  Spd
km/h
Gust
km/h
Spd
kts
Gust
kts
06/11:30pm 24.7 - - - - CALM 0 4 0 2 1016.2 1016.1 -
06/11:17pm 25.0 - - - - CALM 0 - 0 - - 1016.1 -
06/11:00pm 24.4 - - - - CALM 0 6 0 3 1016.3 1016.2 -
06/10:30pm 24.1 - - - - CALM 0 2 0 1 1016.5 1016.4 -
06/10:17pm 24.2 - - - - CALM 0 - 0 - - 1016.3 -
06/10:00pm 24.0 - - - - CALM 0 6 0 3 1016.5 1016.4 -
06/09:30pm 24.2 - - - - CALM 0 4 0 2 1016.7 1016.6 -
06/09:17pm 23.0 - - - - CALM 0 - 0 - - 1016.6 -
06/09:00pm 23.9 - - - - CALM 0 4 0 2 1016.7 1016.6 -
06/08:30pm 23.6 - - - - CALM 0 0 0 0 1016.6 1016.5 -
06/08:17pm 24.0 - - - - CALM 0 - 0 - - 1016.5 -
06/08:00pm 23.9 - - - - CALM 0 0 0 0 1016.5 1016.4 -
06/07:30pm 24.2 - - - - CALM 0 0 0 0 1016.4 1016.3 -
06/07:17pm 24.3 - - - - CALM 0 - 0 - - 1016.4 -
06/07:00pm 24.1 - - - - CALM 0 2 0 1 1016.3 1016.2 -
06/06:30pm 23.9 - - - - CALM 0 6 0 3 1016.1 1016.0 -
06/06:17pm 24.0 - - - - CALM 0 - 0 - - 1015.9 -
06/06:00pm 24.4 - - - - CALM 0 2 0 1 1015.8 1015.7 -
06/05:30pm 24.7 - - - - CALM 0 6 0 3 1015.4 1015.3 -
06/05:17pm 24.4 - - - - CALM 0 - 0 - - 1015.2 -
06/05:00pm 25.1 - - - - CALM 0 2 0 1 1015.2 1015.1 -
06/04:30pm 25.1 - - - - CALM 0 6 0 3 1014.7 1014.6 -
06/04:17pm 25.2 - - - - ENE 13 - 7 - - 1014.5 -
06/04:00pm 25.4 - - - - ENE 13 17 7 9 1014.5 1014.4 -
06/03:30pm 25.7 - - - - ENE 13 19 7 10 1014.4 1014.3 -
06/03:17pm 25.7 - - - - E 13 - 7 - - 1014.5 -
06/03:00pm 25.7 - - - - ENE 15 20 8 11 1014.7 1014.6 -
06/02:30pm 26.0 - - - - ENE 17 22 9 12 1014.6 1014.5 -
06/02:17pm 25.3 - - - - ENE 17 - 9 - - 1014.6 -
06/02:00pm 26.2 - - - - ENE 19 24 10 13 1014.8 1014.7 -
06/01:30pm 25.7 - - - - ENE 19 24 10 13 1015.0 1014.9 -
06/01:17pm 25.6 - - - - ENE 20 - 11 - - 1014.9 -
06/01:00pm 26.0 - - - - E 20 24 11 13 1015.3 1015.2 -
06/12:30pm 25.8 - - - - E 22 28 12 15 1015.5 1015.4 -
06/12:17pm 25.6 - - - - E 20 - 11 - - 1015.6 -
06/12:00pm 26.2 - - - - E 20 24 11 13 1015.9 1015.8 -
06/11:30am 26.0 - - - - E 20 26 11 14 1016.5 1016.4 -
06/11:17am 25.4 - - - - E 22 - 12 - - 1016.5 -
06/11:00am 25.9 - - - - E 20 28 11 15 1016.7 1016.6 -
06/10:30am 26.1 - - - - ENE 24 32 13 17 1016.9 1016.8 -
06/10:17am 25.8 - - - - ENE 26 - 14 - - 1017.0 -
06/10:00am 25.7 - - - - ENE 24 32 13 17 1017.1 1017.0 -
06/09:30am 25.9 - - - - ENE 26 33 14 18 1017.1 1017.0 -
06/09:17am 25.9 - - - - E 26 - 14 - - 1017.0 -
06/09:00am 25.8 - - - - ENE 24 32 13 17 1017.0 1016.9 -
06/08:30am 25.7 - - - - ENE 22 30 12 16 1016.9 1016.8 -
06/08:17am 25.5 - - - - N 22 - 12 - - 1016.7 -
06/08:00am 25.4 - - - - NE 24 30 13 16 1016.7 1016.6 -
06/07:30am 25.3 - - - - ENE 19 26 10 14 1016.3 1016.2 -
06/07:17am 24.8 - - - - ENE 20 - 11 - - 1016.0 -
06/07:00am 24.8 - - - - ENE 20 24 11 13 1016.1 1016.0 -
06/06:30am 24.3 - - - - ENE 15 20 8 11 1015.9 1015.8 -
06/06:17am 24.7 - - - - ENE 2 - 1 - - 1015.7 -
06/06:00am 24.6 - - - - CALM 0 4 0 2 1015.6 1015.5 -
06/05:30am 25.2 - - - - CALM 0 4 0 2 1015.5 1015.4 -
06/05:17am 25.1 - - - - CALM 0 - 0 - - 1015.3 -
06/05:00am 25.2 - - - - CALM 0 2 0 1 1015.1 1015.0 -
06/04:30am 25.1 - - - - CALM 0 4 0 2 1015.0 1014.9 -
06/04:17am 25.2 - - - - CALM 0 - 0 - - 1014.9 -
06/04:00am 25.3 - - - - CALM 0 6 0 3 1014.9 1014.8 -
06/03:30am 25.0 - - - - CALM 0 6 0 3 1014.9 1014.8 -
06/03:18am 24.9 - - - - CALM 0 - 0 - - 1014.8 -
06/03:00am 25.2 - - - - CALM 0 0 0 0 1015.0 1014.9 -
06/02:30am 24.8 - - - - CALM 0 0 0 0 1014.9 1014.8 -
06/02:17am 24.8 - - - - CALM 0 - 0 - - 1014.8 -
06/02:00am 25.1 - - - - CALM 0 6 0 3 1015.0 1014.9 -
06/01:30am 24.7 - - - - CALM 0 4 0 2 1015.0 1014.9 -
06/01:17am 25.0 - - - - CALM 0 - 0 - - 1015.0 -
06/01:00am 25.1 - - - - CALM 0 4 0 2 1015.4 1015.3 -
06/12:17am 24.6 - - - - S 6 - 3 - - 1015.6 -
 
Date/Time
WST
Temp
°C
App
Temp
°C
Dew
Point
°C
Rel
Hum
%
Delta-T
°C
Wind Press
QNH
hPa
Press
MSL
hPa
Rain since
9am
mm
Dir  Spd
km/h
Gust
km/h
Spd
kts
Gust
kts
05/11:17pm 24.6 - - - - S 2 - 1 - - 1015.8 -
05/10:17pm 24.0 - - - - CALM 0 - 0 - - 1015.9 -

Other formats

Comma delimited format used in spreadsheet applications
http://www.bom.gov.au/fwo/IDW60801/IDW60801.94210.axf

JavaScript Object Notation format (JSON) in row-major order
http://www.bom.gov.au/fwo/IDW60801/IDW60801.94210.json

Data quality

Most of these data are generated automatically and are frequently updated. Quality checks on data are not normally performed. It is possible for incorrect values to appear. Refer to information at About Latest Weather Observations and please check the disclaimer before using these data.